Time;durP1;ratioP1;P1;durP2;ratioP2;P2;SDS_P1;SDS_P2;PMS_P1;PMS_P2;Temp;Humidity;BMP_temperature;BMP_pressure;BME280_temperature;BME280_humidity;BME280_pressure;Samples;Min_cycle;Max_cycle;Signal;HPM_P1;HPM_P2
2021/03/10 00:00:17;;;;;;;28.13;18.13;;;3.40;99.90;;;;;;4954652;29;20962;-88
2021/03/10 00:02:43;;;;;;;23.43;16.07;;;3.40;99.90;;;;;;4957469;29;20455;-89
2021/03/10 00:05:11;;;;;;;24.03;16.43;;;3.50;99.90;;;;;;4956348;29;20939;-87
2021/03/10 00:07:37;;;;;;;22.20;16.67;;;3.50;99.90;;;;;;4957142;29;20497;-88
2021/03/10 00:10:04;;;;;;;23.27;15.60;;;3.50;99.90;;;;;;4957410;29;20459;-88
2021/03/10 00:12:31;;;;;;;26.20;17.83;;;3.50;99.90;;;;;;4957286;29;20497;-88
2021/03/10 00:14:58;;;;;;;25.83;17.43;;;3.50;99.90;;;;;;4957295;29;20459;-89
2021/03/10 00:17:24;;;;;;;28.17;19.50;;;3.50;99.90;;;;;;4957084;29;20502;-88
2021/03/10 00:19:50;;;;;;;24.33;15.00;;;3.50;99.90;;;;;;4952929;29;20463;-87
2021/03/10 00:22:17;;;;;;;28.80;17.10;;;3.40;99.90;;;;;;4957171;29;20451;-88
2021/03/10 00:24:43;;;;;;;31.00;19.50;;;3.40;99.90;;;;;;4957061;29;20939;-87
2021/03/10 00:27:23;;;;;;;26.27;17.30;;;3.30;99.90;;;;;;4953908;29;21017;-87
2021/03/10 00:29:49;;;;;;;27.30;18.60;;;3.00;99.90;;;;;;4951444;29;20443;-86
2021/03/10 00:32:17;;;;;;;28.57;18.40;;;3.10;99.90;;;;;;4956836;29;20586;-88
2021/03/10 00:34:43;;;;;;;24.70;16.60;;;3.00;99.90;;;;;;4955712;29;20455;-88
2021/03/10 00:37:10;;;;;;;26.80;18.83;;;3.00;99.90;;;;;;4956837;29;20458;-87
2021/03/10 00:39:36;;;;;;;25.67;15.20;;;3.00;99.90;;;;;;4953697;29;20942;-88
2021/03/10 00:42:02;;;;;;;26.43;18.20;;;3.00;99.90;;;;;;4956575;29;20946;-88
2021/03/10 00:44:29;;;;;;;28.37;17.50;;;3.00;99.90;;;;;;4956196;28;20447;-88
2021/03/10 00:46:55;;;;;;;25.60;16.93;;;3.00;99.90;;;;;;4956405;29;20483;-88
2021/03/10 00:49:22;;;;;;;30.90;19.63;;;3.00;99.90;;;;;;4955595;29;20462;-87
2021/03/10 00:51:49;;;;;;;26.30;17.40;;;3.10;99.90;;;;;;4956632;29;20474;-86
2021/03/10 00:54:15;;;;;;;29.03;18.90;;;4.30;99.90;;;;;;4956347;29;20609;-87
2021/03/10 00:56:41;;;;;;;28.37;18.20;;;3.10;99.90;;;;;;4956429;29;20982;-86
2021/03/10 00:59:08;;;;;;;34.63;19.37;;;3.20;99.90;;;;;;4956426;29;20462;-87
2021/03/10 01:01:34;;;;;;;25.87;18.20;;;3.10;99.90;;;;;;4956275;29;20475;-88
2021/03/10 01:04:00;;;;;;;32.50;19.50;;;3.20;99.90;;;;;;4955039;29;20455;-87
2021/03/10 01:06:27;;;;;;;31.07;19.63;;;3.20;99.90;;;;;;4956140;29;20605;-88
2021/03/10 01:08:54;;;;;;;32.83;19.07;;;3.20;99.90;;;;;;4952193;29;20524;-87
2021/03/10 01:11:20;;;;;;;30.40;19.60;;;3.10;99.90;;;;;;4956346;29;20455;-87
2021/03/10 01:13:47;;;;;;;31.07;20.30;;;3.10;99.90;;;;;;4956126;29;20455;-86
2021/03/10 01:16:14;;;;;;;33.70;21.83;;;3.10;99.90;;;;;;4956242;29;20476;-87
2021/03/10 01:18:40;;;;;;;36.90;21.13;;;3.10;99.90;;;;;;4954941;29;20562;-87
2021/03/10 01:21:07;;;;;;;33.70;20.67;;;3.10;99.90;;;;;;4956002;29;20515;-86
2021/03/10 01:23:34;;;;;;;31.67;20.00;;;3.20;99.90;;;;;;4955816;29;20451;-87
2021/03/10 01:26:01;;;;;;;30.60;21.10;;;3.20;99.90;;;;;;4955770;29;20834;-87
2021/03/10 01:28:27;;;;;;;28.80;19.47;;;3.20;99.90;;;;;;4955794;29;20941;-87
2021/03/10 01:30:54;;;;;;;34.87;21.97;;;3.20;99.90;;;;;;4951746;29;20521;-87
2021/03/10 01:33:20;;;;;;;33.00;20.33;;;3.20;99.90;;;;;;4955469;29;20462;-85
2021/03/10 01:35:46;;;;;;;29.23;19.20;;;3.20;99.90;;;;;;4954994;29;20458;-87
2021/03/10 01:38:13;;;;;;;28.87;18.40;;;3.00;99.90;;;;;;4955604;29;20459;-88
2021/03/10 01:40:40;;;;;;;32.20;19.00;;;3.00;99.90;;;;;;4955281;29;20462;-86
2021/03/10 01:43:08;;;;;;;34.83;20.10;;;2.90;99.90;;;;;;4955508;29;20451;-86
2021/03/10 01:45:35;;;;;;;34.80;19.90;;;2.90;99.90;;;;;;4955545;29;20459;-87
2021/03/10 01:48:06;;;;;;;30.97;19.23;;;2.80;99.90;;;;;;4955465;29;20522;-87
2021/03/10 01:50:33;;;;;;;31.90;19.50;;;2.80;99.90;;;;;;4954388;29;20451;-88
2021/03/10 01:53:01;;;;;;;31.50;18.97;;;2.80;99.90;;;;;;4955306;29;20552;-88
2021/03/10 01:55:28;;;;;;;31.47;21.47;;;2.70;99.90;;;;;;4954818;28;20459;-86
2021/03/10 01:57:55;;;;;;;30.67;16.60;;;2.80;99.90;;;;;;4954575;29;21021;-86
2021/03/10 02:00:24;;;;;;;33.03;20.30;;;2.80;99.90;;;;;;4952384;29;20454;-87
2021/03/10 02:02:50;;;;;;;37.10;21.27;;;2.70;99.90;;;;;;4955321;29;20455;-87
2021/03/10 02:05:19;;;;;;;33.70;20.37;;;2.70;99.90;;;;;;4951009;29;20459;-88
2021/03/10 02:07:56;;;;;;;32.37;20.63;;;2.70;99.90;;;;;;4955131;29;20499;-87
2021/03/10 02:10:34;;;;;;;31.40;21.30;;;2.70;99.90;;;;;;4955124;29;20454;-87
2021/03/10 02:13:13;;;;;;;39.67;20.60;;;2.60;99.90;;;;;;4954906;29;20451;-87
2021/03/10 02:15:49;;;;;;;36.03;21.50;;;2.60;99.90;;;;;;4952058;29;20565;-88
2021/03/10 02:18:23;;;;;;;40.37;22.07;;;2.70;99.90;;;;;;4954959;29;20462;-87
2021/03/10 02:20:54;;;;;;;33.37;20.70;;;2.70;99.90;;;;;;4951632;29;20554;-86
2021/03/10 02:23:41;;;;;;;41.97;22.00;;;2.70;99.90;;;;;;4954890;29;20451;-88
2021/03/10 02:26:34;;;;;;;35.03;22.73;;;2.80;99.90;;;;;;4954867;29;20451;-88
2021/03/10 02:29:05;;;;;;;38.83;22.10;;;2.80;99.90;;;;;;4954761;29;20447;-88
2021/03/10 02:31:36;;;;;;;34.83;21.67;;;2.90;99.90;;;;;;4951797;29;20455;-86
2021/03/10 02:34:04;;;;;;;33.13;21.00;;;2.90;99.90;;;;;;4953686;29;20454;-86
2021/03/10 02:36:30;;;;;;;40.20;22.17;;;2.90;99.90;;;;;;4954784;29;20455;-88
2021/03/10 02:39:00;;;;;;;35.23;23.00;;;2.90;99.90;;;;;;4954681;29;20450;-87
2021/03/10 02:41:29;;;;;;;35.80;21.83;;;2.90;99.90;;;;;;4950791;29;20447;-86
2021/03/10 02:43:56;;;;;;;44.07;22.37;;;2.80;99.90;;;;;;4954501;29;20447;-86
2021/03/10 02:46:25;;;;;;;36.90;21.70;;;2.80;99.90;;;;;;4954513;29;20490;-88
2021/03/10 02:48:52;;;;;;;35.27;19.50;;;3.00;99.90;;;;;;4953249;29;20802;-86
2021/03/10 02:51:20;;;;;;;38.63;21.87;;;3.10;99.90;;;;;;4954632;29;20462;-87
2021/03/10 02:53:48;;;;;;;36.37;21.60;;;3.00;99.90;;;;;;4954512;29;20447;-88
2021/03/10 02:56:14;;;;;;;38.43;23.27;;;3.40;99.90;;;;;;4950197;29;20534;-87
2021/03/10 02:58:42;;;;;;;41.70;21.50;;;3.10;99.90;;;;;;4951292;29;20536;-88
2021/03/10 03:01:08;;;;;;;43.57;24.00;;;3.10;99.90;;;;;;4954358;29;20452;-87
2021/03/10 03:03:36;;;;;;;36.20;21.70;;;3.10;99.90;;;;;;4950366;29;21022;-87
2021/03/10 03:06:02;;;;;;;41.17;22.90;;;3.10;99.90;;;;;;4954248;29;20450;-87
2021/03/10 03:08:29;;;;;;;35.00;22.23;;;3.10;99.90;;;;;;4953090;28;21018;-87
2021/03/10 03:10:56;;;;;;;36.80;22.40;;;3.10;99.90;;;;;;4958137;29;20859;-86
2021/03/10 03:13:25;;;;;;;35.90;22.50;;;3.10;99.90;;;;;;4958330;29;20446;-88
2021/03/10 03:15:57;;;;;;;43.27;23.30;;;3.20;99.90;;;;;;4958122;29;20466;-87
2021/03/10 03:18:25;;;;;;;39.70;24.50;;;3.20;99.90;;;;;;4957376;29;20455;-85
2021/03/10 03:20:52;;;;;;;38.37;23.67;;;3.30;99.90;;;;;;4957987;29;20907;-87
2021/03/10 03:23:20;;;;;;;31.57;19.70;;;3.20;99.90;;;;;;4956129;29;20447;-87
2021/03/10 03:25:47;;;;;;;37.03;23.73;;;3.20;99.90;;;;;;4954047;29;20447;-88
2021/03/10 03:28:15;;;;;;;33.50;20.37;;;3.20;99.90;;;;;;4958082;29;20898;-88
2021/03/10 03:30:43;;;;;;;36.70;21.80;;;3.20;99.90;;;;;;4958127;29;20530;-87
2021/03/10 03:33:12;;;;;;;33.80;22.50;;;3.10;99.90;;;;;;4957930;29;20470;-88
2021/03/10 03:35:39;;;;;;;36.80;22.40;;;3.20;99.90;;;;;;4956638;29;20462;-87
2021/03/10 03:38:07;;;;;;;35.23;22.10;;;3.10;99.90;;;;;;4957923;29;20455;-87
2021/03/10 03:40:34;;;;;;;40.23;23.10;;;3.10;99.90;;;;;;4958031;29;20439;-87
2021/03/10 03:43:01;;;;;;;36.67;22.57;;;3.10;99.90;;;;;;4957824;29;20478;-87
2021/03/10 03:45:28;;;;;;;40.20;22.30;;;3.10;99.90;;;;;;4957598;29;20876;-87
2021/03/10 03:47:55;;;;;;;42.63;24.80;;;3.10;99.90;;;;;;4957577;29;20490;-87
2021/03/10 03:50:23;;;;;;;41.00;23.90;;;3.10;99.90;;;;;;4952504;29;20521;-88
2021/03/10 03:52:49;;;;;;;34.27;20.97;;;3.10;99.90;;;;;;4957630;29;20514;-87
2021/03/10 03:55:16;;;;;;;41.43;24.57;;;3.10;99.90;;;;;;4957519;29;20807;-86
2021/03/10 03:57:43;;;;;;;37.10;23.23;;;3.00;99.90;;;;;;4954335;29;20482;-87
2021/03/10 04:00:11;;;;;;;40.70;23.23;;;3.00;99.90;;;;;;4953485;29;20447;-87
2021/03/10 04:02:37;;;;;;;40.00;24.23;;;3.00;99.90;;;;;;4957491;29;20522;-87
2021/03/10 04:05:05;;;;;;;38.97;23.40;;;3.00;99.90;;;;;;4956219;29;20942;-87
2021/03/10 04:07:31;;;;;;;36.33;21.90;;;3.00;99.90;;;;;;4952712;29;21000;-88
2021/03/10 04:09:58;;;;;;;37.73;23.50;;;2.90;99.90;;;;;;4957301;29;20922;-87
2021/03/10 04:12:25;;;;;;;43.63;23.60;;;2.90;99.90;;;;;;4957225;29;20818;-86
2021/03/10 04:14:51;;;;;;;40.67;23.80;;;2.90;99.90;;;;;;4957416;29;20462;-87
2021/03/10 04:17:18;;;;;;;36.13;21.60;;;2.90;99.90;;;;;;4957122;29;20475;-88
2021/03/10 04:19:44;;;;;;;36.97;21.73;;;2.90;99.90;;;;;;4954951;28;20463;-88
2021/03/10 04:22:11;;;;;;;37.50;23.60;;;2.90;99.90;;;;;;4957004;29;20509;-86
2021/03/10 04:24:37;;;;;;;37.20;22.33;;;2.90;99.90;;;;;;4957044;29;20485;-86
2021/03/10 04:27:04;;;;;;;42.47;25.40;;;2.90;99.90;;;;;;4956873;29;21044;-87
2021/03/10 04:29:31;;;;;;;41.37;24.27;;;2.90;99.90;;;;;;4954022;29;20458;-87
2021/03/10 04:31:58;;;;;;;43.23;24.70;;;2.90;99.90;;;;;;4956917;29;20462;-88
2021/03/10 04:34:24;;;;;;;42.23;24.23;;;2.90;99.90;;;;;;4955609;29;20466;-88
2021/03/10 04:36:50;;;;;;;42.40;26.63;;;3.00;99.90;;;;;;4953974;29;20491;-87
2021/03/10 04:39:16;;;;;;;42.23;24.60;;;3.00;99.90;;;;;;4956952;29;20448;-88
2021/03/10 04:41:43;;;;;;;41.07;23.03;;;3.00;99.90;;;;;;4956857;29;20462;-86
2021/03/10 04:44:09;;;;;;;40.53;21.83;;;2.90;99.90;;;;;;4953698;29;20527;-87
2021/03/10 04:46:36;;;;;;;41.03;23.60;;;2.90;99.90;;;;;;4956468;29;20494;-87
2021/03/10 04:49:03;;;;;;;38.57;22.90;;;2.80;99.90;;;;;;4955304;29;20514;-86
2021/03/10 04:51:29;;;;;;;41.57;25.17;;;2.80;99.90;;;;;;4956465;29;20447;-87
2021/03/10 04:53:55;;;;;;;38.93;24.57;;;2.70;99.90;;;;;;4952458;29;20502;-87
2021/03/10 04:56:21;;;;;;;40.40;26.50;;;2.70;99.90;;;;;;4956222;29;20455;-87
2021/03/10 04:58:48;;;;;;;39.90;23.80;;;2.70;99.90;;;;;;4956459;29;20961;-87
2021/03/10 05:01:14;;;;;;;41.67;23.17;;;2.70;99.90;;;;;;4956326;29;20931;-87
2021/03/10 05:03:41;;;;;;;56.00;24.10;;;2.60;99.90;;;;;;4955140;29;21041;-87
2021/03/10 05:06:07;;;;;;;40.03;23.73;;;2.60;99.90;;;;;;4952288;29;20459;-87
2021/03/10 05:08:33;;;;;;;37.50;22.83;;;2.60;99.90;;;;;;4956274;29;20878;-87
2021/03/10 05:11:00;;;;;;;39.87;23.40;;;2.60;99.90;;;;;;4956262;29;20478;-86
2021/03/10 05:13:26;;;;;;;46.77;25.03;;;2.60;99.90;;;;;;4951855;29;20467;-87
2021/03/10 05:15:52;;;;;;;40.50;25.20;;;2.60;99.90;;;;;;4955915;29;20478;-87
2021/03/10 05:18:19;;;;;;;41.70;22.10;;;2.60;99.90;;;;;;4955980;29;20463;-87
2021/03/10 05:20:46;;;;;;;42.20;25.93;;;2.60;99.90;;;;;;4954979;29;20525;-87
2021/03/10 05:23:12;;;;;;;37.57;24.30;;;2.60;99.90;;;;;;4953053;29;20451;-87
2021/03/10 05:25:38;;;;;;;41.67;23.30;;;2.70;99.90;;;;;;4955932;29;20461;-88
2021/03/10 05:28:05;;;;;;;39.93;23.37;;;2.70;99.90;;;;;;4951730;29;20499;-87
2021/03/10 05:30:31;;;;;;;38.10;24.33;;;2.80;99.90;;;;;;4951843;28;20456;-87
2021/03/10 05:32:58;;;;;;;41.73;23.40;;;2.80;99.90;;;;;;4955904;29;20791;-89
2021/03/10 05:35:24;;;;;;;42.93;24.30;;;2.80;99.90;;;;;;4954728;29;20455;-87
2021/03/10 05:37:52;;;;;;;41.10;23.40;;;2.80;99.90;;;;;;4955999;29;20467;-87
2021/03/10 05:40:18;;;;;;;39.33;23.83;;;2.90;99.90;;;;;;4952820;29;20803;-86
2021/03/10 05:42:45;;;;;;;37.37;20.77;;;2.90;99.90;;;;;;4955685;29;20936;-87
2021/03/10 05:45:13;;;;;;;37.33;23.03;;;2.90;99.90;;;;;;4955685;29;20458;-87
2021/03/10 05:47:39;;;;;;;36.83;19.63;;;2.90;99.90;;;;;;4955591;29;20499;-87
2021/03/10 05:50:07;;;;;;;39.10;24.10;;;2.90;99.90;;;;;;4954394;29;20454;-86
2021/03/10 05:52:37;;;;;;;40.70;22.17;;;2.90;99.90;;;;;;4955548;29;20462;-86
2021/03/10 05:55:06;;;;;;;31.60;16.20;;;2.90;99.90;;;;;;4955621;29;20462;-88
2021/03/10 05:57:32;;;;;;;40.80;23.63;;;2.90;99.90;;;;;;4955317;29;20484;-87
2021/03/10 05:59:59;;;;;;;41.70;24.20;;;2.90;99.90;;;;;;4952439;29;20486;-87
2021/03/10 06:02:26;;;;;;;41.17;24.77;;;2.90;99.90;;;;;;4955343;29;20459;-87
2021/03/10 06:04:53;;;;;;;39.17;22.63;;;2.90;99.90;;;;;;4954255;29;20490;-87
2021/03/10 06:07:20;;;;;;;41.23;24.40;;;3.00;99.90;;;;;;4955170;29;20499;-87
2021/03/10 06:10:00;;;;;;;46.67;28.80;;;3.00;99.90;;;;;;4955151;29;20505;-87
2021/03/10 06:12:38;;;;;;;45.00;26.13;;;3.00;99.90;;;;;;4955407;29;20449;-88
2021/03/10 06:15:06;;;;;;;43.70;24.77;;;3.00;99.90;;;;;;4955299;29;20738;-88
2021/03/10 06:17:41;;;;;;;41.37;25.40;;;3.10;99.90;;;;;;4955069;29;20447;-88
2021/03/10 06:20:09;;;;;;;46.10;25.33;;;3.10;99.90;;;;;;4954084;29;20454;-87
2021/03/10 06:22:36;;;;;;;39.70;23.17;;;3.10;99.90;;;;;;4955061;29;20459;-87
2021/03/10 06:25:04;;;;;;;38.40;21.97;;;3.10;99.90;;;;;;4954824;29;20455;-87
2021/03/10 06:27:31;;;;;;;39.97;22.83;;;3.20;99.90;;;;;;4954970;29;20502;-88
2021/03/10 06:29:59;;;;;;;39.43;21.67;;;3.20;99.90;;;;;;4954931;29;20478;-89
2021/03/10 06:32:27;;;;;;;40.20;22.07;;;3.30;99.90;;;;;;4937209;29;20454;-87
2021/03/10 06:34:53;;;;;;;37.63;22.27;;;3.30;99.90;;;;;;4953889;29;20459;-87
2021/03/10 06:37:28;;;;;;;40.47;22.83;;;3.30;99.90;;;;;;4955937;29;20458;-88
2021/03/10 06:40:06;;;;;;;44.13;26.10;;;3.40;99.90;;;;;;4954688;29;20860;-88
2021/03/10 06:42:34;;;;;;;55.00;35.90;;;3.40;99.90;;;;;;4951939;28;20938;-87
2021/03/10 06:45:01;;;;;;;40.00;24.67;;;3.40;99.90;;;;;;4955354;29;20455;-87
2021/03/10 06:47:35;;;;;;;41.43;23.93;;;4.20;99.90;;;;;;4952485;29;20487;-88
2021/03/10 06:50:03;;;;;;;37.80;19.77;;;3.40;99.90;;;;;;4953930;29;20863;-87
2021/03/10 06:52:29;;;;;;;33.63;19.53;;;3.40;99.90;;;;;;4956275;29;20455;-89
2021/03/10 06:54:56;;;;;;;31.40;20.60;;;3.40;99.90;;;;;;4954730;29;20888;-88
2021/03/10 06:57:24;;;;;;;34.97;21.50;;;3.40;99.90;;;;;;4956411;29;20836;-87
2021/03/10 06:59:51;;;;;;;41.17;22.53;;;3.40;99.90;;;;;;4952757;29;20522;-87
2021/03/10 07:02:20;;;;;;;35.53;19.13;;;3.20;99.90;;;;;;4952290;29;20459;-88
2021/03/10 07:04:48;;;;;;;38.77;22.13;;;3.40;99.90;;;;;;4956346;29;20455;-89
2021/03/10 07:07:15;;;;;;;41.53;22.73;;;3.40;99.90;;;;;;4956104;29;20510;-87
2021/03/10 07:09:42;;;;;;;36.97;21.00;;;3.50;99.90;;;;;;4954921;29;20815;-87
2021/03/10 07:12:10;;;;;;;35.20;22.30;;;3.60;99.90;;;;;;4956641;29;20794;-88
2021/03/10 07:14:37;;;;;;;35.27;21.90;;;3.50;99.90;;;;;;4957462;29;20462;-88
2021/03/10 07:17:06;;;;;;;40.13;23.23;;;3.60;99.90;;;;;;4941249;29;21006;-87
2021/03/10 07:19:34;;;;;;;38.30;21.80;;;3.50;99.90;;;;;;4954698;29;20462;-88
2021/03/10 07:22:05;;;;;;;39.50;23.80;;;3.60;99.90;;;;;;4956066;29;20466;-88
2021/03/10 07:24:49;;;;;;;32.53;20.30;;;4.00;99.90;;;;;;4956771;29;20825;-90
2021/03/10 07:27:18;;;;;;;38.07;22.70;;;4.00;99.90;;;;;;4956385;29;20506;-90
2021/03/10 07:29:44;;;;;;;36.03;22.37;;;4.00;99.90;;;;;;4957017;29;20962;-89
2021/03/10 07:32:11;;;;;;;33.63;21.50;;;4.00;99.90;;;;;;4953042;29;20462;-88
2021/03/10 07:34:38;;;;;;;34.97;22.93;;;4.00;99.90;;;;;;4957442;29;20463;-88
2021/03/10 07:37:15;;;;;;;35.13;22.97;;;4.10;99.90;;;;;;4957417;29;20500;-91
2021/03/10 07:39:42;;;;;;;37.73;22.80;;;4.20;99.90;;;;;;4955531;29;20934;-88
2021/03/10 07:42:10;;;;;;;38.73;23.63;;;4.30;99.90;;;;;;4950993;29;20552;-87
2021/03/10 07:44:36;;;;;;;34.20;21.20;;;4.40;99.90;;;;;;4957404;29;20463;-88
2021/03/10 07:47:08;;;;;;;35.87;23.87;;;4.40;99.90;;;;;;4955652;29;20483;-87
2021/03/10 07:49:36;;;;;;;35.10;19.17;;;4.30;99.90;;;;;;4955669;29;20482;-88
2021/03/10 07:52:07;;;;;;;36.63;22.37;;;4.30;99.90;;;;;;4956965;29;20482;-88
2021/03/10 07:54:35;;;;;;;35.13;21.90;;;4.30;99.90;;;;;;4955116;28;20578;-88
2021/03/10 07:57:05;;;;;;;38.63;24.20;;;4.30;99.90;;;;;;4956090;29;20502;-88
2021/03/10 07:59:32;;;;;;;36.70;20.70;;;4.60;99.90;;;;;;4965275;28;20446;-86
2021/03/10 08:02:02;;;;;;;38.90;24.57;;;4.50;99.90;;;;;;4979534;28;20513;-87
2021/03/10 08:04:28;;;;;;;38.17;22.00;;;4.60;99.90;;;;;;4979087;28;20606;-86
2021/03/10 08:06:55;;;;;;;39.10;24.63;;;4.70;99.90;;;;;;4979710;28;20520;-86
2021/03/10 08:09:23;;;;;;;39.17;24.20;;;4.60;99.90;;;;;;4977178;28;20517;-86
2021/03/10 08:12:04;;;;;;;41.03;21.67;;;4.70;99.90;;;;;;4977850;28;20867;-87
2021/03/10 08:14:39;;;;;;;23.97;13.13;;;4.70;99.90;;;;;;4976793;28;20454;-90
2021/03/10 08:17:06;;;;;;;38.13;22.73;;;5.00;99.90;;;;;;4979145;28;20446;-88
2021/03/10 08:19:32;;;;;;;35.10;21.77;;;4.80;99.90;;;;;;4979793;28;20525;-87
2021/03/10 08:21:59;;;;;;;40.97;23.03;;;;;;;;;;4978269;28;20804;-86
2021/03/10 08:24:27;;;;;;;31.60;19.70;;;5.10;99.90;;;;;;4979932;28;20446;-87
2021/03/10 08:26:55;;;;;;;29.90;20.13;;;5.10;99.90;;;;;;4974997;28;20500;-86
2021/03/10 08:29:22;;;;;;;42.13;23.73;;;5.00;99.90;;;;;;4978001;28;20461;-87
2021/03/10 08:31:51;;;;;;;36.97;23.97;;;5.10;99.90;;;;;;4976774;28;20465;-87
2021/03/10 08:34:29;;;;;;;33.80;20.83;;;5.30;99.90;;;;;;4965961;28;20553;-88
2021/03/10 08:36:55;;;;;;;34.47;19.77;;;5.30;99.90;;;;;;4976606;28;20438;-84
2021/03/10 08:39:22;;;;;;;34.67;21.43;;;5.40;99.90;;;;;;4973975;28;20915;-86
2021/03/10 08:41:52;;;;;;;37.27;23.80;;;5.20;99.90;;;;;;4978817;28;20445;-89
2021/03/10 08:44:22;;;;;;;33.80;21.10;;;5.30;99.90;;;;;;4980736;28;20591;-86
2021/03/10 08:46:49;;;;;;;31.23;18.80;;;5.40;99.90;;;;;;4978656;28;20484;-89
2021/03/10 08:49:20;;;;;;;31.57;19.53;;;5.40;99.90;;;;;;4974607;28;20486;-87
2021/03/10 08:51:47;;;;;;;35.30;21.13;;;;;;;;;;4958368;28;20452;-85
2021/03/10 08:54:13;;;;;;;33.57;22.03;;;6.00;99.90;;;;;;4979971;28;20450;-86
2021/03/10 08:56:48;;;;;;;29.73;20.40;;;7.40;99.90;;;;;;4981209;28;22539;-87
2021/03/10 08:59:15;;;;;;;36.17;24.20;;;6.40;99.90;;;;;;4967609;28;20462;-88
2021/03/10 09:01:49;;;;;;;35.57;23.00;;;6.50;99.90;;;;;;4956759;29;20931;-87
2021/03/10 09:04:23;;;;;;;25.60;15.17;;;6.80;99.90;;;;;;4960199;28;20455;-87
2021/03/10 09:06:50;;;;;;;29.50;20.23;;;6.60;99.90;;;;;;4957017;28;20447;-88
2021/03/10 09:09:17;;;;;;;29.10;17.60;;;6.50;99.90;;;;;;4968385;28;21016;-88
2021/03/10 09:11:47;;;;;;;25.70;14.67;;;6.70;99.90;;;;;;4975955;28;20450;-87
2021/03/10 09:14:15;;;;;;;31.03;20.50;;;6.40;99.90;;;;;;4976034;28;20457;-89
2021/03/10 09:16:55;;;;;;;31.47;17.60;;;6.30;99.90;;;;;;4975828;28;20450;-89
2021/03/10 09:19:32;;;;;;;33.50;19.90;;;6.30;99.90;;;;;;4968649;28;20458;-86
2021/03/10 09:22:13;;;;;;;31.10;21.57;;;6.40;99.90;;;;;;4957153;29;20449;-88
2021/03/10 09:24:51;;;;;;;36.60;21.57;;;6.50;99.90;;;;;;4953606;29;20471;-87
2021/03/10 09:27:23;;;;;;;31.70;18.37;;;6.60;99.90;;;;;;4957874;29;20525;-93
2021/03/10 09:29:51;;;;;;;30.53;17.60;;;6.80;99.90;;;;;;4956357;28;20459;-85
2021/03/10 09:32:17;;;;;;;36.63;20.20;;;6.70;99.90;;;;;;4967687;28;20985;-87
2021/03/10 09:34:47;;;;;;;28.50;19.20;;;6.90;99.90;;;;;;4955559;29;20447;-86
2021/03/10 09:37:14;;;;;;;29.90;18.67;;;6.90;99.90;;;;;;4973771;28;20458;-86
2021/03/10 09:39:42;;;;;;;32.60;20.57;;;6.80;99.90;;;;;;4975552;28;20450;-85
2021/03/10 09:42:08;;;;;;;32.87;20.77;;;7.10;99.90;;;;;;4968667;28;20455;-87
2021/03/10 09:44:46;;;;;;;29.57;21.13;;;7.40;99.90;;;;;;4955904;29;20954;-85
2021/03/10 09:47:18;;;;;;;27.00;17.07;;;7.80;99.90;;;;;;4956184;29;20485;-87
2021/03/10 09:49:49;;;;;;;29.97;17.10;;;8.40;99.90;;;;;;4955228;29;20464;-86
2021/03/10 09:52:16;;;;;;;25.30;17.97;;;9.30;99.90;;;;;;4956986;29;20535;-86
2021/03/10 09:54:53;;;;;;;25.23;15.87;;;9.10;99.90;;;;;;4957096;29;20958;-87
2021/03/10 09:57:24;;;;;;;22.37;15.33;;;8.20;99.90;;;;;;4963169;28;20475;-86
2021/03/10 09:59:50;;;;;;;20.17;15.40;;;7.60;99.90;;;;;;4970908;28;20504;-87
2021/03/10 10:02:18;;;;;;;25.63;15.43;;;7.60;99.90;;;;;;4976088;28;20450;-87
2021/03/10 10:04:55;;;;;;;24.97;17.20;;;7.60;99.90;;;;;;4975091;28;20521;-87
2021/03/10 10:07:23;;;;;;;18.80;13.03;;;8.40;99.90;;;;;;4975219;28;20494;-87
2021/03/10 10:09:49;;;;;;;24.87;14.03;;;7.90;99.90;;;;;;4974582;28;20470;-87
2021/03/10 10:12:15;;;;;;;32.60;18.13;;;7.90;99.90;;;;;;4974317;28;20454;-86
2021/03/10 10:14:42;;;;;;;28.50;16.30;;;7.50;99.90;;;;;;4974460;28;20489;-87
2021/03/10 10:17:08;;;;;;;21.40;15.20;;;7.50;99.90;;;;;;4973755;28;20521;-88
2021/03/10 10:19:36;;;;;;;17.23;11.80;;;7.50;99.90;;;;;;4971963;28;20450;-86
2021/03/10 10:22:02;;;;;;;13.37;8.63;;;7.60;99.90;;;;;;4965324;28;20447;-87
2021/03/10 10:24:28;;;;;;;16.50;9.43;;;7.50;99.90;;;;;;4906295;28;20487;-87
2021/03/10 10:26:55;;;;;;;14.93;10.20;;;7.90;99.90;;;;;;4985340;28;20453;-84
2021/03/10 10:29:21;;;;;;;15.70;10.30;;;7.20;99.90;;;;;;4993761;28;20511;-87
2021/03/10 10:31:48;;;;;;;16.23;9.33;;;7.10;99.90;;;;;;4994092;28;20460;-87
2021/03/10 10:34:15;;;;;;;20.87;11.03;;;7.10;99.90;;;;;;4992028;28;20448;-88
2021/03/10 10:36:42;;;;;;;18.17;12.77;;;7.20;99.90;;;;;;4993267;28;20917;-87
2021/03/10 10:39:09;;;;;;;19.97;11.60;;;7.20;99.90;;;;;;4982014;28;20458;-85
2021/03/10 10:41:35;;;;;;;21.40;13.20;;;7.40;99.90;;;;;;4973906;28;20931;-84
2021/03/10 10:44:01;;;;;;;14.50;8.47;;;7.40;99.90;;;;;;4974484;28;20458;-86
2021/03/10 10:46:28;;;;;;;10.23;6.70;;;7.40;99.90;;;;;;4971454;28;20552;-88
2021/03/10 10:48:54;;;;;;;12.53;8.67;;;7.30;99.90;;;;;;4972968;28;20608;-86
2021/03/10 10:51:21;;;;;;;11.20;7.37;;;7.90;99.90;;;;;;4981001;28;20453;-86
2021/03/10 10:53:49;;;;;;;8.20;5.70;;;8.00;99.90;;;;;;4977880;28;20447;-86
2021/03/10 10:56:16;;;;;;;7.03;5.20;;;8.50;99.30;;;;;;4976361;28;20520;-87
2021/03/10 10:58:42;;;;;;;5.37;4.10;;;8.80;98.80;;;;;;4993541;28;20477;-87
2021/03/10 11:01:08;;;;;;;5.60;3.80;;;8.50;96.80;;;;;;4994566;28;20449;-86
2021/03/10 11:03:35;;;;;;;8.50;5.10;;;8.50;96.10;;;;;;4989787;28;20478;-87
2021/03/10 11:06:01;;;;;;;6.27;3.03;;;8.70;96.00;;;;;;4993169;28;20449;-88
2021/03/10 11:08:28;;;;;;;5.20;3.70;;;8.90;94.40;;;;;;4988156;28;20502;-87
2021/03/10 11:10:55;;;;;;;7.30;4.20;;;9.00;94.60;;;;;;4968390;28;20450;-87
2021/03/10 11:13:22;;;;;;;5.07;3.87;;;9.50;95.00;;;;;;4973655;28;20546;-86
2021/03/10 11:15:48;;;;;;;6.10;4.70;;;9.00;93.90;;;;;;4971173;28;20446;-85
2021/03/10 11:18:14;;;;;;;6.17;4.60;;;8.70;94.50;;;;;;4974033;28;20942;-87
2021/03/10 11:20:40;;;;;;;6.80;5.03;;;8.80;95.50;;;;;;4973126;28;20831;-88
2021/03/10 11:23:07;;;;;;;14.23;6.70;;;8.60;94.90;;;;;;4971805;28;21333;-86
2021/03/10 11:25:33;;;;;;;6.57;4.13;;;8.80;95.20;;;;;;4992700;28;20495;-85
2021/03/10 11:28:00;;;;;;;5.10;4.07;;;8.50;94.90;;;;;;4992760;28;20505;-86
2021/03/10 11:30:27;;;;;;;6.37;4.10;;;8.70;95.30;;;;;;4996695;28;20461;-86
2021/03/10 11:32:53;;;;;;;8.00;4.10;;;8.80;94.90;;;;;;4996604;28;20866;-86
2021/03/10 11:35:22;;;;;;;7.27;4.60;;;9.00;94.70;;;;;;4995485;28;20511;-87
2021/03/10 11:37:48;;;;;;;6.83;4.80;;;9.20;93.70;;;;;;4992745;28;20521;-86
2021/03/10 11:40:15;;;;;;;6.63;4.27;;;9.40;93.00;;;;;;4984113;28;20458;-87
2021/03/10 11:42:42;;;;;;;8.50;4.67;;;9.50;94.20;;;;;;4977309;28;20461;-87
2021/03/10 11:45:11;;;;;;;6.47;4.40;;;9.50;92.90;;;;;;4966365;28;20442;-87
2021/03/10 11:47:38;;;;;;;6.77;3.70;;;9.50;93.30;;;;;;4976492;28;20997;-88
2021/03/10 11:50:05;;;;;;;5.77;4.60;;;9.50;93.80;;;;;;4975477;28;20458;-87
2021/03/10 11:52:31;;;;;;;6.00;4.30;;;9.50;93.60;;;;;;4976518;28;20474;-87
2021/03/10 11:54:57;;;;;;;6.83;4.60;;;9.40;93.80;;;;;;4977056;28;20450;-87
2021/03/10 11:57:24;;;;;;;6.03;4.70;;;9.30;93.80;;;;;;4976499;28;20498;-87
2021/03/10 11:59:50;;;;;;;5.97;4.33;;;9.20;93.50;;;;;;4977149;28;20504;-86
2021/03/10 12:02:19;;;;;;;8.00;4.87;;;8.80;93.60;;;;;;4976796;28;20454;-89
2021/03/10 12:04:45;;;;;;;5.77;4.47;;;8.20;98.00;;;;;;4971038;28;20458;-88
2021/03/10 12:07:11;;;;;;;7.43;4.93;;;9.00;93.70;;;;;;4976386;28;20979;-87
2021/03/10 12:09:38;;;;;;;8.20;5.27;;;8.90;94.80;;;;;;4976665;28;20441;-86
2021/03/10 12:12:06;;;;;;;9.43;4.97;;;9.00;93.80;;;;;;4976556;28;20477;-88
2021/03/10 12:14:32;;;;;;;5.67;4.47;;;8.90;93.40;;;;;;4977420;28;20476;-88
2021/03/10 12:16:58;;;;;;;8.90;5.73;;;8.80;93.40;;;;;;4975926;28;20972;-88
2021/03/10 12:19:25;;;;;;;7.20;4.93;;;8.90;92.90;;;;;;4975524;28;20458;-90
2021/03/10 12:21:52;;;;;;;7.30;4.40;;;9.10;93.00;;;;;;4976837;28;20516;-89
2021/03/10 12:24:18;;;;;;;7.40;5.00;;;9.00;93.00;;;;;;4976561;28;20454;-88
2021/03/10 12:26:44;;;;;;;6.23;4.80;;;9.10;92.80;;;;;;4973579;28;20526;-89
2021/03/10 12:29:11;;;;;;;5.20;3.10;;;9.10;92.90;;;;;;4973696;28;20502;-88
2021/03/10 12:31:37;;;;;;;5.23;4.10;;;8.90;92.00;;;;;;4974746;28;20512;-87
2021/03/10 12:34:04;;;;;;;6.40;4.10;;;9.20;92.90;;;;;;4970052;28;20473;-87
2021/03/10 12:36:31;;;;;;;6.20;4.03;;;9.20;92.00;;;;;;4976385;28;20877;-86
2021/03/10 12:38:57;;;;;;;6.90;4.60;;;9.10;91.80;;;;;;4976355;28;20458;-87
2021/03/10 12:41:24;;;;;;;6.80;3.97;;;9.50;91.80;;;;;;4978712;28;20458;-87
2021/03/10 12:43:51;;;;;;;6.40;2.67;;;9.70;92.00;;;;;;4976500;28;20462;-87